Terminal Aerodrome Forecast
Issued by NWS

Home | Current Version | Previous Version | Text Only | Print | Product List | Glossary On
Versions: 1 2 3 4 5 6 7 8 9 10 11 12 13 14 15 16 17 18 19 20 21 22 23
000
FTUS45 KREV 280500
TAFTVL
TAF
KTVL 280520Z 2806/2906 VRB04KT P6SM BKN180
     FM281900 19010KT P6SM SCT180
     FM290300 19005KT P6SM SCT150=

USA.gov is the U.S. government's official web portal to all federal, state and local government web resources and services.